sensor_id;sensor_type;location;lat;lon;timestamp;P1;durP1;ratioP1;P2;durP2;ratioP2
12884;SDS011;6510;51.362;7.370;2023-03-23T00:01:54;9.90;;;4.90;;
12884;SDS011;6510;51.362;7.370;2023-03-23T00:04:19;10.33;;;4.73;;
12884;SDS011;6510;51.362;7.370;2023-03-23T00:06:45;10.27;;;5.40;;
12884;SDS011;6510;51.362;7.370;2023-03-23T00:09:12;11.87;;;5.10;;
12884;SDS011;6510;51.362;7.370;2023-03-23T00:11:40;9.73;;;5.33;;
12884;SDS011;6510;51.362;7.370;2023-03-23T00:14:06;10.23;;;5.70;;
12884;SDS011;6510;51.362;7.370;2023-03-23T00:16:38;10.97;;;6.03;;
12884;SDS011;6510;51.362;7.370;2023-03-23T00:19:09;11.87;;;5.40;;
12884;SDS011;6510;51.362;7.370;2023-03-23T00:21:40;9.50;;;5.43;;
12884;SDS011;6510;51.362;7.370;2023-03-23T00:24:16;11.33;;;5.17;;
12884;SDS011;6510;51.362;7.370;2023-03-23T00:26:44;12.37;;;5.07;;
12884;SDS011;6510;51.362;7.370;2023-03-23T00:31:39;12.77;;;5.00;;
12884;SDS011;6510;51.362;7.370;2023-03-23T00:34:05;9.27;;;5.17;;
12884;SDS011;6510;51.362;7.370;2023-03-23T00:36:31;7.97;;;4.83;;
12884;SDS011;6510;51.362;7.370;2023-03-23T00:39:00;8.17;;;5.10;;
12884;SDS011;6510;51.362;7.370;2023-03-23T00:41:27;8.60;;;4.37;;
12884;SDS011;6510;51.362;7.370;2023-03-23T00:43:57;9.03;;;5.00;;
12884;SDS011;6510;51.362;7.370;2023-03-23T00:46:25;8.77;;;4.10;;
12884;SDS011;6510;51.362;7.370;2023-03-23T00:48:51;6.07;;;4.27;;
12884;SDS011;6510;51.362;7.370;2023-03-23T00:51:17;10.43;;;4.33;;
12884;SDS011;6510;51.362;7.370;2023-03-23T00:53:44;5.97;;;3.70;;
12884;SDS011;6510;51.362;7.370;2023-03-23T00:56:10;5.13;;;4.07;;
12884;SDS011;6510;51.362;7.370;2023-03-23T00:58:36;9.03;;;4.37;;
12884;SDS011;6510;51.362;7.370;2023-03-23T01:01:02;7.47;;;3.70;;
12884;SDS011;6510;51.362;7.370;2023-03-23T01:03:28;7.40;;;4.07;;
12884;SDS011;6510;51.362;7.370;2023-03-23T01:05:54;7.73;;;4.47;;
12884;SDS011;6510;51.362;7.370;2023-03-23T01:08:21;7.53;;;3.97;;
12884;SDS011;6510;51.362;7.370;2023-03-23T01:10:48;5.70;;;4.03;;
12884;SDS011;6510;51.362;7.370;2023-03-23T01:13:15;9.03;;;3.80;;
12884;SDS011;6510;51.362;7.370;2023-03-23T01:15:42;6.10;;;3.73;;
12884;SDS011;6510;51.362;7.370;2023-03-23T01:18:08;6.50;;;3.50;;
12884;SDS011;6510;51.362;7.370;2023-03-23T01:20:35;4.83;;;3.07;;
12884;SDS011;6510;51.362;7.370;2023-03-23T01:23:01;5.83;;;3.70;;
12884;SDS011;6510;51.362;7.370;2023-03-23T01:25:29;6.17;;;3.67;;
12884;SDS011;6510;51.362;7.370;2023-03-23T01:27:57;5.90;;;3.33;;
12884;SDS011;6510;51.362;7.370;2023-03-23T01:30:23;9.13;;;3.80;;
12884;SDS011;6510;51.362;7.370;2023-03-23T01:32:50;9.33;;;3.50;;
12884;SDS011;6510;51.362;7.370;2023-03-23T01:35:16;8.00;;;3.63;;
12884;SDS011;6510;51.362;7.370;2023-03-23T01:37:42;6.53;;;3.17;;
12884;SDS011;6510;51.362;7.370;2023-03-23T01:40:08;6.17;;;3.37;;
12884;SDS011;6510;51.362;7.370;2023-03-23T01:42:35;6.97;;;3.90;;
12884;SDS011;6510;51.362;7.370;2023-03-23T01:45:22;4.63;;;3.27;;
12884;SDS011;6510;51.362;7.370;2023-03-23T01:48:11;6.87;;;4.00;;
12884;SDS011;6510;51.362;7.370;2023-03-23T01:50:43;6.00;;;3.23;;
12884;SDS011;6510;51.362;7.370;2023-03-23T01:53:12;6.67;;;3.73;;
12884;SDS011;6510;51.362;7.370;2023-03-23T01:55:39;4.70;;;3.57;;
12884;SDS011;6510;51.362;7.370;2023-03-23T01:58:08;5.60;;;3.70;;
12884;SDS011;6510;51.362;7.370;2023-03-23T02:00:36;6.23;;;3.50;;
12884;SDS011;6510;51.362;7.370;2023-03-23T02:03:05;6.97;;;3.93;;
12884;SDS011;6510;51.362;7.370;2023-03-23T02:05:34;7.93;;;4.00;;
12884;SDS011;6510;51.362;7.370;2023-03-23T02:08:03;5.07;;;3.83;;
12884;SDS011;6510;51.362;7.370;2023-03-23T02:10:31;5.93;;;3.63;;
12884;SDS011;6510;51.362;7.370;2023-03-23T02:12:58;6.27;;;3.90;;
12884;SDS011;6510;51.362;7.370;2023-03-23T02:15:27;5.40;;;3.63;;
12884;SDS011;6510;51.362;7.370;2023-03-23T02:18:30;5.27;;;3.60;;
12884;SDS011;6510;51.362;7.370;2023-03-23T02:35:15;5.70;;;3.87;;
12884;SDS011;6510;51.362;7.370;2023-03-23T02:37:57;5.73;;;4.30;;
12884;SDS011;6510;51.362;7.370;2023-03-23T02:40:30;6.77;;;3.97;;
12884;SDS011;6510;51.362;7.370;2023-03-23T02:43:01;8.50;;;4.27;;
12884;SDS011;6510;51.362;7.370;2023-03-23T02:45:28;6.17;;;4.00;;
12884;SDS011;6510;51.362;7.370;2023-03-23T02:47:55;7.97;;;4.30;;
12884;SDS011;6510;51.362;7.370;2023-03-23T02:50:23;4.93;;;3.77;;
12884;SDS011;6510;51.362;7.370;2023-03-23T02:52:52;7.67;;;4.27;;
12884;SDS011;6510;51.362;7.370;2023-03-23T02:55:19;6.83;;;4.07;;
12884;SDS011;6510;51.362;7.370;2023-03-23T02:57:49;7.90;;;4.10;;
12884;SDS011;6510;51.362;7.370;2023-03-23T03:00:16;7.50;;;4.60;;
12884;SDS011;6510;51.362;7.370;2023-03-23T03:02:44;6.20;;;4.20;;
12884;SDS011;6510;51.362;7.370;2023-03-23T03:08:10;5.37;;;4.00;;
12884;SDS011;6510;51.362;7.370;2023-03-23T03:13:32;7.17;;;4.13;;
12884;SDS011;6510;51.362;7.370;2023-03-23T03:16:10;4.97;;;3.70;;
12884;SDS011;6510;51.362;7.370;2023-03-23T03:18:54;4.23;;;3.27;;
12884;SDS011;6510;51.362;7.370;2023-03-23T03:21:27;3.90;;;3.40;;
12884;SDS011;6510;51.362;7.370;2023-03-23T03:23:56;5.80;;;3.83;;
12884;SDS011;6510;51.362;7.370;2023-03-23T03:26:25;5.77;;;3.77;;
12884;SDS011;6510;51.362;7.370;2023-03-23T03:28:53;6.33;;;3.90;;
12884;SDS011;6510;51.362;7.370;2023-03-23T03:31:24;6.63;;;3.97;;
12884;SDS011;6510;51.362;7.370;2023-03-23T03:33:55;5.80;;;4.03;;
12884;SDS011;6510;51.362;7.370;2023-03-23T03:36:23;6.53;;;3.83;;
12884;SDS011;6510;51.362;7.370;2023-03-23T03:38:51;4.13;;;3.53;;
12884;SDS011;6510;51.362;7.370;2023-03-23T03:41:18;6.83;;;3.63;;
12884;SDS011;6510;51.362;7.370;2023-03-23T03:43:45;6.00;;;3.50;;
12884;SDS011;6510;51.362;7.370;2023-03-23T03:46:10;4.97;;;3.40;;
12884;SDS011;6510;51.362;7.370;2023-03-23T03:48:36;4.03;;;3.37;;
12884;SDS011;6510;51.362;7.370;2023-03-23T03:51:02;4.10;;;3.37;;
12884;SDS011;6510;51.362;7.370;2023-03-23T03:53:28;5.27;;;3.40;;
12884;SDS011;6510;51.362;7.370;2023-03-23T03:55:54;3.37;;;3.03;;
12884;SDS011;6510;51.362;7.370;2023-03-23T03:58:25;4.53;;;3.00;;
12884;SDS011;6510;51.362;7.370;2023-03-23T04:00:56;4.47;;;3.30;;
12884;SDS011;6510;51.362;7.370;2023-03-23T04:03:23;5.27;;;3.00;;
12884;SDS011;6510;51.362;7.370;2023-03-23T04:05:50;3.40;;;2.70;;
12884;SDS011;6510;51.362;7.370;2023-03-23T04:08:16;4.20;;;2.70;;
12884;SDS011;6510;51.362;7.370;2023-03-23T04:10:42;2.53;;;2.33;;
12884;SDS011;6510;51.362;7.370;2023-03-23T04:13:08;4.70;;;2.90;;
12884;SDS011;6510;51.362;7.370;2023-03-23T04:15:33;3.00;;;2.70;;
12884;SDS011;6510;51.362;7.370;2023-03-23T04:17:59;4.20;;;2.60;;
12884;SDS011;6510;51.362;7.370;2023-03-23T04:20:25;4.00;;;2.63;;
12884;SDS011;6510;51.362;7.370;2023-03-23T04:22:51;3.17;;;2.80;;
12884;SDS011;6510;51.362;7.370;2023-03-23T04:25:19;3.03;;;2.50;;
12884;SDS011;6510;51.362;7.370;2023-03-23T04:27:46;3.40;;;2.57;;
12884;SDS011;6510;51.362;7.370;2023-03-23T04:30:22;2.90;;;2.60;;
12884;SDS011;6510;51.362;7.370;2023-03-23T04:32:50;2.53;;;2.27;;
12884;SDS011;6510;51.362;7.370;2023-03-23T04:35:17;3.03;;;2.60;;
12884;SDS011;6510;51.362;7.370;2023-03-23T04:37:44;3.13;;;2.40;;
12884;SDS011;6510;51.362;7.370;2023-03-23T04:40:10;2.20;;;2.00;;
12884;SDS011;6510;51.362;7.370;2023-03-23T04:42:39;3.50;;;2.50;;
12884;SDS011;6510;51.362;7.370;2023-03-23T04:45:07;2.10;;;2.00;;
12884;SDS011;6510;51.362;7.370;2023-03-23T04:47:34;2.20;;;2.00;;
12884;SDS011;6510;51.362;7.370;2023-03-23T04:50:08;2.63;;;2.00;;
12884;SDS011;6510;51.362;7.370;2023-03-23T04:52:36;2.30;;;2.10;;
12884;SDS011;6510;51.362;7.370;2023-03-23T04:55:05;2.43;;;2.23;;
12884;SDS011;6510;51.362;7.370;2023-03-23T04:57:32;2.20;;;2.00;;
12884;SDS011;6510;51.362;7.370;2023-03-23T04:59:58;4.17;;;2.20;;
12884;SDS011;6510;51.362;7.370;2023-03-23T05:02:24;3.40;;;2.10;;
12884;SDS011;6510;51.362;7.370;2023-03-23T05:04:50;3.00;;;2.00;;
12884;SDS011;6510;51.362;7.370;2023-03-23T05:07:16;2.40;;;2.20;;
12884;SDS011;6510;51.362;7.370;2023-03-23T05:09:41;4.23;;;2.20;;
12884;SDS011;6510;51.362;7.370;2023-03-23T05:12:11;2.17;;;1.97;;
12884;SDS011;6510;51.362;7.370;2023-03-23T05:14:39;2.53;;;2.07;;
12884;SDS011;6510;51.362;7.370;2023-03-23T05:17:06;1.83;;;1.73;;
12884;SDS011;6510;51.362;7.370;2023-03-23T05:19:32;3.37;;;2.17;;
12884;SDS011;6510;51.362;7.370;2023-03-23T05:21:58;3.63;;;2.57;;
12884;SDS011;6510;51.362;7.370;2023-03-23T05:24:31;3.87;;;2.20;;
12884;SDS011;6510;51.362;7.370;2023-03-23T05:27:00;2.10;;;2.00;;
12884;SDS011;6510;51.362;7.370;2023-03-23T05:29:27;2.57;;;2.27;;
12884;SDS011;6510;51.362;7.370;2023-03-23T05:31:55;2.40;;;2.20;;
12884;SDS011;6510;51.362;7.370;2023-03-23T05:34:24;4.30;;;2.20;;
12884;SDS011;6510;51.362;7.370;2023-03-23T05:36:54;3.70;;;2.30;;
12884;SDS011;6510;51.362;7.370;2023-03-23T05:39:20;2.50;;;1.90;;
12884;SDS011;6510;51.362;7.370;2023-03-23T05:41:46;3.10;;;1.93;;
12884;SDS011;6510;51.362;7.370;2023-03-23T05:44:12;3.70;;;2.23;;
12884;SDS011;6510;51.362;7.370;2023-03-23T05:46:40;2.20;;;2.00;;
12884;SDS011;6510;51.362;7.370;2023-03-23T05:49:06;2.30;;;2.03;;
12884;SDS011;6510;51.362;7.370;2023-03-23T05:51:32;2.30;;;2.10;;
12884;SDS011;6510;51.362;7.370;2023-03-23T05:53:58;2.40;;;2.13;;
12884;SDS011;6510;51.362;7.370;2023-03-23T05:56:24;1.67;;;1.57;;
12884;SDS011;6510;51.362;7.370;2023-03-23T05:58:50;4.23;;;2.23;;
12884;SDS011;6510;51.362;7.370;2023-03-23T06:01:15;2.13;;;2.00;;
12884;SDS011;6510;51.362;7.370;2023-03-23T06:03:41;1.90;;;1.80;;
12884;SDS011;6510;51.362;7.370;2023-03-23T06:06:09;3.07;;;1.87;;
12884;SDS011;6510;51.362;7.370;2023-03-23T06:08:36;2.07;;;1.97;;
12884;SDS011;6510;51.362;7.370;2023-03-23T06:11:02;2.30;;;2.10;;
12884;SDS011;6510;51.362;7.370;2023-03-23T06:13:29;1.73;;;1.63;;
12884;SDS011;6510;51.362;7.370;2023-03-23T06:15:55;4.53;;;2.00;;
12884;SDS011;6510;51.362;7.370;2023-03-23T06:18:24;2.30;;;1.97;;
12884;SDS011;6510;51.362;7.370;2023-03-23T06:20:50;2.20;;;2.03;;
12884;SDS011;6510;51.362;7.370;2023-03-23T06:23:16;2.27;;;2.07;;
12884;SDS011;6510;51.362;7.370;2023-03-23T06:25:42;2.20;;;2.03;;
12884;SDS011;6510;51.362;7.370;2023-03-23T06:28:08;1.97;;;1.80;;
12884;SDS011;6510;51.362;7.370;2023-03-23T06:30:34;4.07;;;2.00;;
12884;SDS011;6510;51.362;7.370;2023-03-23T06:33:01;2.43;;;2.23;;
12884;SDS011;6510;51.362;7.370;2023-03-23T06:35:30;2.07;;;1.83;;
12884;SDS011;6510;51.362;7.370;2023-03-23T06:37:56;2.17;;;1.87;;
12884;SDS011;6510;51.362;7.370;2023-03-23T06:40:26;2.30;;;1.63;;
12884;SDS011;6510;51.362;7.370;2023-03-23T06:42:53;2.60;;;2.03;;
12884;SDS011;6510;51.362;7.370;2023-03-23T06:45:19;1.93;;;1.60;;
12884;SDS011;6510;51.362;7.370;2023-03-23T06:47:45;1.53;;;1.43;;
12884;SDS011;6510;51.362;7.370;2023-03-23T06:50:13;1.87;;;1.77;;
12884;SDS011;6510;51.362;7.370;2023-03-23T06:52:40;1.43;;;1.33;;
12884;SDS011;6510;51.362;7.370;2023-03-23T06:55:10;2.10;;;1.53;;
12884;SDS011;6510;51.362;7.370;2023-03-23T06:57:36;1.50;;;1.40;;
12884;SDS011;6510;51.362;7.370;2023-03-23T07:00:02;1.60;;;1.50;;
12884;SDS011;6510;51.362;7.370;2023-03-23T07:02:31;2.00;;;1.50;;
12884;SDS011;6510;51.362;7.370;2023-03-23T07:04:56;1.50;;;1.40;;
12884;SDS011;6510;51.362;7.370;2023-03-23T07:07:22;1.50;;;1.40;;
12884;SDS011;6510;51.362;7.370;2023-03-23T07:09:48;1.73;;;1.40;;
12884;SDS011;6510;51.362;7.370;2023-03-23T07:12:13;2.13;;;1.50;;
12884;SDS011;6510;51.362;7.370;2023-03-23T07:14:39;1.63;;;1.40;;
12884;SDS011;6510;51.362;7.370;2023-03-23T07:17:05;2.10;;;1.80;;
12884;SDS011;6510;51.362;7.370;2023-03-23T07:19:32;1.70;;;1.60;;
12884;SDS011;6510;51.362;7.370;2023-03-23T07:21:58;2.90;;;1.67;;
12884;SDS011;6510;51.362;7.370;2023-03-23T07:24:23;2.00;;;1.80;;
12884;SDS011;6510;51.362;7.370;2023-03-23T07:26:49;2.20;;;1.60;;
12884;SDS011;6510;51.362;7.370;2023-03-23T07:29:16;2.27;;;1.70;;
12884;SDS011;6510;51.362;7.370;2023-03-23T07:31:42;2.40;;;1.40;;
12884;SDS011;6510;51.362;7.370;2023-03-23T07:34:07;2.40;;;1.57;;
12884;SDS011;6510;51.362;7.370;2023-03-23T07:36:33;1.50;;;1.30;;
12884;SDS011;6510;51.362;7.370;2023-03-23T07:39:02;1.80;;;1.10;;
12884;SDS011;6510;51.362;7.370;2023-03-23T07:41:31;1.30;;;1.20;;
12884;SDS011;6510;51.362;7.370;2023-03-23T07:43:57;2.10;;;0.90;;
12884;SDS011;6510;51.362;7.370;2023-03-23T07:46:22;1.30;;;1.17;;
12884;SDS011;6510;51.362;7.370;2023-03-23T07:48:48;2.33;;;1.30;;
12884;SDS011;6510;51.362;7.370;2023-03-23T07:51:14;1.17;;;1.07;;
12884;SDS011;6510;51.362;7.370;2023-03-23T07:53:42;1.40;;;1.20;;
12884;SDS011;6510;51.362;7.370;2023-03-23T07:56:09;1.93;;;1.33;;
12884;SDS011;6510;51.362;7.370;2023-03-23T07:58:36;1.30;;;1.00;;
12884;SDS011;6510;51.362;7.370;2023-03-23T08:01:02;2.07;;;1.40;;
12884;SDS011;6510;51.362;7.370;2023-03-23T08:03:28;2.23;;;1.30;;
12884;SDS011;6510;51.362;7.370;2023-03-23T08:05:57;1.30;;;1.10;;
12884;SDS011;6510;51.362;7.370;2023-03-23T08:08:24;1.47;;;1.37;;
12884;SDS011;6510;51.362;7.370;2023-03-23T08:10:50;3.63;;;1.53;;
12884;SDS011;6510;51.362;7.370;2023-03-23T08:13:15;2.10;;;1.20;;
12884;SDS011;6510;51.362;7.370;2023-03-23T08:15:41;1.93;;;1.10;;
12884;SDS011;6510;51.362;7.370;2023-03-23T08:18:09;1.30;;;1.20;;
12884;SDS011;6510;51.362;7.370;2023-03-23T08:20:35;1.10;;;1.00;;
12884;SDS011;6510;51.362;7.370;2023-03-23T08:23:01;1.00;;;1.00;;
12884;SDS011;6510;51.362;7.370;2023-03-23T08:25:28;1.40;;;1.10;;
12884;SDS011;6510;51.362;7.370;2023-03-23T08:27:56;1.10;;;0.90;;
12884;SDS011;6510;51.362;7.370;2023-03-23T08:30:23;1.37;;;0.97;;
12884;SDS011;6510;51.362;7.370;2023-03-23T08:32:51;1.33;;;1.20;;
12884;SDS011;6510;51.362;7.370;2023-03-23T08:35:17;1.73;;;1.10;;
12884;SDS011;6510;51.362;7.370;2023-03-23T08:37:44;1.33;;;1.23;;
12884;SDS011;6510;51.362;7.370;2023-03-23T08:40:11;1.87;;;1.20;;
12884;SDS011;6510;51.362;7.370;2023-03-23T08:42:40;0.77;;;0.77;;
12884;SDS011;6510;51.362;7.370;2023-03-23T08:45:10;3.10;;;1.20;;
12884;SDS011;6510;51.362;7.370;2023-03-23T08:47:37;2.13;;;1.10;;
12884;SDS011;6510;51.362;7.370;2023-03-23T08:50:04;3.13;;;1.50;;
12884;SDS011;6510;51.362;7.370;2023-03-23T08:52:30;3.37;;;1.57;;
12884;SDS011;6510;51.362;7.370;2023-03-23T08:54:56;2.13;;;1.50;;
12884;SDS011;6510;51.362;7.370;2023-03-23T08:57:22;1.47;;;1.37;;
12884;SDS011;6510;51.362;7.370;2023-03-23T08:59:49;1.80;;;1.40;;
12884;SDS011;6510;51.362;7.370;2023-03-23T09:02:15;2.90;;;1.20;;
12884;SDS011;6510;51.362;7.370;2023-03-23T09:04:41;2.07;;;1.43;;
12884;SDS011;6510;51.362;7.370;2023-03-23T09:07:08;1.80;;;1.40;;
12884;SDS011;6510;51.362;7.370;2023-03-23T09:09:36;2.97;;;1.07;;
12884;SDS011;6510;51.362;7.370;2023-03-23T09:12:02;1.83;;;1.30;;
12884;SDS011;6510;51.362;7.370;2023-03-23T09:14:28;2.50;;;1.37;;
12884;SDS011;6510;51.362;7.370;2023-03-23T09:16:54;1.70;;;1.10;;
12884;SDS011;6510;51.362;7.370;2023-03-23T09:19:19;4.03;;;1.30;;
12884;SDS011;6510;51.362;7.370;2023-03-23T09:21:45;1.63;;;1.20;;
12884;SDS011;6510;51.362;7.370;2023-03-23T09:24:11;1.47;;;1.20;;
12884;SDS011;6510;51.362;7.370;2023-03-23T09:26:37;2.00;;;1.13;;
12884;SDS011;6510;51.362;7.370;2023-03-23T09:29:03;1.60;;;1.20;;
12884;SDS011;6510;51.362;7.370;2023-03-23T09:31:28;1.07;;;1.00;;
12884;SDS011;6510;51.362;7.370;2023-03-23T09:33:56;1.60;;;1.20;;
12884;SDS011;6510;51.362;7.370;2023-03-23T09:36:24;2.17;;;1.10;;
12884;SDS011;6510;51.362;7.370;2023-03-23T09:38:51;1.10;;;0.77;;
12884;SDS011;6510;51.362;7.370;2023-03-23T09:49:39;4.53;;;1.30;;
12884;SDS011;6510;51.362;7.370;2023-03-23T09:52:13;2.30;;;1.57;;
12884;SDS011;6510;51.362;7.370;2023-03-23T09:54:44;3.07;;;1.47;;
12884;SDS011;6510;51.362;7.370;2023-03-23T09:57:28;2.40;;;1.40;;
12884;SDS011;6510;51.362;7.370;2023-03-23T10:05:41;3.53;;;1.30;;
12884;SDS011;6510;51.362;7.370;2023-03-23T10:08:18;3.10;;;1.50;;
12884;SDS011;6510;51.362;7.370;2023-03-23T10:16:55;3.57;;;1.10;;
12884;SDS011;6510;51.362;7.370;2023-03-23T10:22:32;2.67;;;1.50;;
12884;SDS011;6510;51.362;7.370;2023-03-23T10:30:22;5.17;;;1.50;;
12884;SDS011;6510;51.362;7.370;2023-03-23T10:32:53;2.43;;;1.23;;
12884;SDS011;6510;51.362;7.370;2023-03-23T10:35:28;3.83;;;1.73;;
12884;SDS011;6510;51.362;7.370;2023-03-23T10:38:01;3.00;;;1.40;;
12884;SDS011;6510;51.362;7.370;2023-03-23T10:40:30;1.97;;;1.60;;
12884;SDS011;6510;51.362;7.370;2023-03-23T10:43:00;3.47;;;1.43;;
12884;SDS011;6510;51.362;7.370;2023-03-23T10:45:27;3.53;;;1.40;;
12884;SDS011;6510;51.362;7.370;2023-03-23T10:48:15;1.60;;;0.80;;
12884;SDS011;6510;51.362;7.370;2023-03-23T10:51:02;2.93;;;0.80;;
12884;SDS011;6510;51.362;7.370;2023-03-23T10:53:35;0.60;;;0.60;;
12884;SDS011;6510;51.362;7.370;2023-03-23T10:56:34;1.37;;;1.00;;
12884;SDS011;6510;51.362;7.370;2023-03-23T11:01:52;1.53;;;1.13;;
12884;SDS011;6510;51.362;7.370;2023-03-23T11:04:20;1.57;;;1.30;;
12884;SDS011;6510;51.362;7.370;2023-03-23T11:06:51;0.90;;;0.90;;
12884;SDS011;6510;51.362;7.370;2023-03-23T11:09:20;1.67;;;1.03;;
12884;SDS011;6510;51.362;7.370;2023-03-23T11:11:57;1.93;;;1.10;;
12884;SDS011;6510;51.362;7.370;2023-03-23T11:14:30;1.83;;;1.00;;
12884;SDS011;6510;51.362;7.370;2023-03-23T11:17:00;1.27;;;1.17;;
12884;SDS011;6510;51.362;7.370;2023-03-23T11:19:28;1.67;;;1.00;;
12884;SDS011;6510;51.362;7.370;2023-03-23T11:22:06;1.57;;;1.20;;
12884;SDS011;6510;51.362;7.370;2023-03-23T11:24:41;1.30;;;1.00;;
12884;SDS011;6510;51.362;7.370;2023-03-23T11:27:09;1.60;;;1.10;;
12884;SDS011;6510;51.362;7.370;2023-03-23T11:29:36;1.37;;;1.20;;
12884;SDS011;6510;51.362;7.370;2023-03-23T11:32:12;1.60;;;1.10;;
12884;SDS011;6510;51.362;7.370;2023-03-23T11:34:47;2.13;;;1.10;;
12884;SDS011;6510;51.362;7.370;2023-03-23T11:42:42;1.60;;;1.30;;
12884;SDS011;6510;51.362;7.370;2023-03-23T11:50:34;2.70;;;1.40;;
12884;SDS011;6510;51.362;7.370;2023-03-23T11:56:07;1.77;;;1.67;;
12884;SDS011;6510;51.362;7.370;2023-03-23T11:58:37;2.40;;;1.40;;
12884;SDS011;6510;51.362;7.370;2023-03-23T12:01:05;5.03;;;3.03;;
12884;SDS011;6510;51.362;7.370;2023-03-23T12:06:22;2.07;;;1.37;;
12884;SDS011;6510;51.362;7.370;2023-03-23T12:11:44;2.40;;;1.90;;
12884;SDS011;6510;51.362;7.370;2023-03-23T12:14:29;3.33;;;1.80;;
12884;SDS011;6510;51.362;7.370;2023-03-23T12:19:51;2.47;;;2.20;;
12884;SDS011;6510;51.362;7.370;2023-03-23T12:30:30;3.20;;;2.90;;
12884;SDS011;6510;51.362;7.370;2023-03-23T12:33:02;2.70;;;2.50;;
12884;SDS011;6510;51.362;7.370;2023-03-23T12:36:08;5.17;;;3.90;;
12884;SDS011;6510;51.362;7.370;2023-03-23T12:39:29;5.80;;;3.70;;
12884;SDS011;6510;51.362;7.370;2023-03-23T12:44:52;4.80;;;3.90;;
12884;SDS011;6510;51.362;7.370;2023-03-23T12:50:00;4.37;;;3.90;;
12884;SDS011;6510;51.362;7.370;2023-03-23T12:52:42;4.90;;;3.93;;
12884;SDS011;6510;51.362;7.370;2023-03-23T12:58:09;4.93;;;3.73;;
12884;SDS011;6510;51.362;7.370;2023-03-23T13:11:31;6.23;;;4.57;;
12884;SDS011;6510;51.362;7.370;2023-03-23T13:14:01;5.37;;;4.07;;
12884;SDS011;6510;51.362;7.370;2023-03-23T13:16:38;4.10;;;3.70;;
12884;SDS011;6510;51.362;7.370;2023-03-23T13:24:54;5.23;;;4.67;;
12884;SDS011;6510;51.362;7.370;2023-03-23T13:27:27;4.93;;;4.50;;
12884;SDS011;6510;51.362;7.370;2023-03-23T13:29:54;4.77;;;4.10;;
12884;SDS011;6510;51.362;7.370;2023-03-23T13:32:34;4.30;;;3.90;;
12884;SDS011;6510;51.362;7.370;2023-03-23T13:35:05;4.93;;;3.40;;
12884;SDS011;6510;51.362;7.370;2023-03-23T13:37:40;0.00;;;0.00;;
12884;SDS011;6510;51.362;7.370;2023-03-23T13:42:46;0.00;;;0.00;;
12884;SDS011;6510;51.362;7.370;2023-03-23T13:48:28;0.00;;;0.00;;
12884;SDS011;6510;51.362;7.370;2023-03-23T13:53:28;0.00;;;0.00;;
12884;SDS011;6510;51.362;7.370;2023-03-23T13:56:13;0.00;;;0.00;;
12884;SDS011;6510;51.362;7.370;2023-03-23T13:58:47;0.00;;;0.00;;
12884;SDS011;6510;51.362;7.370;2023-03-23T14:01:30;0.00;;;0.00;;
12884;SDS011;6510;51.362;7.370;2023-03-23T14:03:58;0.00;;;0.00;;
12884;SDS011;6510;51.362;7.370;2023-03-23T14:06:26;0.00;;;0.00;;
12884;SDS011;6510;51.362;7.370;2023-03-23T14:09:03;0.00;;;0.00;;
12884;SDS011;6510;51.362;7.370;2023-03-23T14:11:31;0.00;;;0.00;;
12884;SDS011;6510;51.362;7.370;2023-03-23T14:14:05;0.00;;;0.00;;
12884;SDS011;6510;51.362;7.370;2023-03-23T14:19:03;0.00;;;0.00;;
12884;SDS011;6510;51.362;7.370;2023-03-23T14:21:41;0.00;;;0.00;;
12884;SDS011;6510;51.362;7.370;2023-03-23T14:24:17;0.00;;;0.00;;
12884;SDS011;6510;51.362;7.370;2023-03-23T14:26:47;0.10;;;0.10;;
12884;SDS011;6510;51.362;7.370;2023-03-23T14:29:17;0.30;;;0.30;;
12884;SDS011;6510;51.362;7.370;2023-03-23T14:31:47;0.50;;;0.50;;
12884;SDS011;6510;51.362;7.370;2023-03-23T14:34:19;0.17;;;0.17;;
12884;SDS011;6510;51.362;7.370;2023-03-23T14:36:46;0.00;;;0.00;;
12884;SDS011;6510;51.362;7.370;2023-03-23T14:41:46;0.20;;;0.20;;
12884;SDS011;6510;51.362;7.370;2023-03-23T14:44:14;0.67;;;0.50;;
12884;SDS011;6510;51.362;7.370;2023-03-23T14:46:43;0.20;;;0.20;;
12884;SDS011;6510;51.362;7.370;2023-03-23T14:49:10;0.20;;;0.20;;
12884;SDS011;6510;51.362;7.370;2023-03-23T14:51:47;0.10;;;0.10;;
12884;SDS011;6510;51.362;7.370;2023-03-23T14:54:14;0.10;;;0.10;;
12884;SDS011;6510;51.362;7.370;2023-03-23T14:56:40;0.00;;;0.00;;
12884;SDS011;6510;51.362;7.370;2023-03-23T14:59:06;0.00;;;0.00;;
12884;SDS011;6510;51.362;7.370;2023-03-23T15:01:35;0.00;;;0.00;;
12884;SDS011;6510;51.362;7.370;2023-03-23T15:04:04;0.00;;;0.00;;
12884;SDS011;6510;51.362;7.370;2023-03-23T15:06:36;0.00;;;0.00;;
12884;SDS011;6510;51.362;7.370;2023-03-23T15:09:05;0.00;;;0.00;;
12884;SDS011;6510;51.362;7.370;2023-03-23T15:11:36;0.00;;;0.00;;
12884;SDS011;6510;51.362;7.370;2023-03-23T15:14:48;0.00;;;0.00;;
12884;SDS011;6510;51.362;7.370;2023-03-23T15:16:55;0.00;;;0.00;;
12884;SDS011;6510;51.362;7.370;2023-03-23T15:19:28;0.00;;;0.00;;
12884;SDS011;6510;51.362;7.370;2023-03-23T15:24:51;0.00;;;0.00;;
12884;SDS011;6510;51.362;7.370;2023-03-23T15:27:27;0.00;;;0.00;;
12884;SDS011;6510;51.362;7.370;2023-03-23T15:30:31;0.00;;;0.00;;
12884;SDS011;6510;51.362;7.370;2023-03-23T15:33:04;0.00;;;0.00;;
12884;SDS011;6510;51.362;7.370;2023-03-23T15:35:36;0.00;;;0.00;;
12884;SDS011;6510;51.362;7.370;2023-03-23T15:38:04;0.00;;;0.00;;
12884;SDS011;6510;51.362;7.370;2023-03-23T15:40:32;0.00;;;0.00;;
12884;SDS011;6510;51.362;7.370;2023-03-23T15:48:45;0.00;;;0.00;;
12884;SDS011;6510;51.362;7.370;2023-03-23T15:51:12;0.00;;;0.00;;
12884;SDS011;6510;51.362;7.370;2023-03-23T15:53:39;0.00;;;0.00;;
12884;SDS011;6510;51.362;7.370;2023-03-23T15:56:07;0.00;;;0.00;;
12884;SDS011;6510;51.362;7.370;2023-03-23T15:58:34;0.00;;;0.00;;
12884;SDS011;6510;51.362;7.370;2023-03-23T16:01:06;0.00;;;0.00;;
12884;SDS011;6510;51.362;7.370;2023-03-23T16:03:49;0.00;;;0.00;;
12884;SDS011;6510;51.362;7.370;2023-03-23T16:06:21;0.00;;;0.00;;
12884;SDS011;6510;51.362;7.370;2023-03-23T16:08:48;0.00;;;0.00;;
12884;SDS011;6510;51.362;7.370;2023-03-23T16:11:15;0.00;;;0.00;;
12884;SDS011;6510;51.362;7.370;2023-03-23T16:13:42;0.10;;;0.10;;
12884;SDS011;6510;51.362;7.370;2023-03-23T16:16:13;0.00;;;0.00;;
12884;SDS011;6510;51.362;7.370;2023-03-23T16:18:44;0.00;;;0.00;;
12884;SDS011;6510;51.362;7.370;2023-03-23T16:21:10;0.00;;;0.00;;
12884;SDS011;6510;51.362;7.370;2023-03-23T16:23:36;0.10;;;0.10;;
12884;SDS011;6510;51.362;7.370;2023-03-23T16:26:02;0.00;;;0.00;;
12884;SDS011;6510;51.362;7.370;2023-03-23T16:28:28;0.00;;;0.00;;
12884;SDS011;6510;51.362;7.370;2023-03-23T16:30:53;0.07;;;0.07;;
12884;SDS011;6510;51.362;7.370;2023-03-23T16:33:19;0.10;;;0.10;;
12884;SDS011;6510;51.362;7.370;2023-03-23T16:35:45;0.00;;;0.00;;
12884;SDS011;6510;51.362;7.370;2023-03-23T16:38:12;0.10;;;0.10;;
12884;SDS011;6510;51.362;7.370;2023-03-23T16:40:40;0.10;;;0.10;;
12884;SDS011;6510;51.362;7.370;2023-03-23T16:43:07;0.10;;;0.10;;
12884;SDS011;6510;51.362;7.370;2023-03-23T16:45:33;0.00;;;0.00;;
12884;SDS011;6510;51.362;7.370;2023-03-23T16:47:59;0.00;;;0.00;;
12884;SDS011;6510;51.362;7.370;2023-03-23T16:50:26;0.30;;;0.30;;
12884;SDS011;6510;51.362;7.370;2023-03-23T16:52:53;0.20;;;0.20;;
12884;SDS011;6510;51.362;7.370;2023-03-23T16:55:19;0.10;;;0.10;;
12884;SDS011;6510;51.362;7.370;2023-03-23T16:57:45;0.20;;;0.10;;
12884;SDS011;6510;51.362;7.370;2023-03-23T17:00:15;0.17;;;0.17;;
12884;SDS011;6510;51.362;7.370;2023-03-23T17:02:44;0.20;;;0.20;;
12884;SDS011;6510;51.362;7.370;2023-03-23T17:05:11;0.20;;;0.20;;
12884;SDS011;6510;51.362;7.370;2023-03-23T17:07:38;0.30;;;0.30;;
12884;SDS011;6510;51.362;7.370;2023-03-23T17:10:05;0.20;;;0.20;;
12884;SDS011;6510;51.362;7.370;2023-03-23T17:12:33;0.20;;;0.20;;
12884;SDS011;6510;51.362;7.370;2023-03-23T17:14:59;0.43;;;0.33;;
12884;SDS011;6510;51.362;7.370;2023-03-23T17:17:25;0.30;;;0.30;;
12884;SDS011;6510;51.362;7.370;2023-03-23T17:19:50;0.30;;;0.27;;
12884;SDS011;6510;51.362;7.370;2023-03-23T17:22:16;0.30;;;0.20;;
12884;SDS011;6510;51.362;7.370;2023-03-23T17:24:42;0.30;;;0.30;;